Time;durP1;ratioP1;P1;durP2;ratioP2;P2;SDS_P1;SDS_P2;PMS_P1;PMS_P2;Temp;Humidity;BMP_temperature;BMP_pressure;BME280_temperature;BME280_humidity;BME280_pressure;Samples;Min_cycle;Max_cycle;Signal;HPM_P1;HPM_P2
2023/09/08 00:01:10;;;;;;;12.65;11.27;;;;;;;19.75;78.03;95539.31;5050838;28;20199;-66
2023/09/08 00:03:37;;;;;;;12.88;10.98;;;;;;;19.63;79.09;95546.88;5050575;28;20214;-64
2023/09/08 00:06:04;;;;;;;12.52;11.60;;;;;;;19.65;79.25;95549.38;5048995;28;20230;-63
2023/09/08 00:08:32;;;;;;;14.40;12.75;;;;;;;19.71;79.50;95554.16;5050208;28;20207;-63
2023/09/08 00:10:59;;;;;;;12.85;11.73;;;;;;;19.67;80.18;95548.34;5049396;28;20198;-64
2023/09/08 00:13:26;;;;;;;14.05;12.57;;;;;;;19.64;80.47;95543.38;5054231;28;20226;-64
2023/09/08 00:15:52;;;;;;;13.27;12.02;;;;;;;19.59;81.49;95544.56;5048233;28;20264;-64
2023/09/08 00:18:19;;;;;;;12.75;11.77;;;;;;;19.55;81.59;95538.78;5048405;28;20237;-63
2023/09/08 00:20:46;;;;;;;12.60;11.52;;;;;;;19.56;81.91;95537.84;5049042;28;20226;-65
2023/09/08 00:23:12;;;;;;;13.27;11.90;;;;;;;19.43;81.47;95516.31;5050376;28;20202;-64
2023/09/08 00:25:41;;;;;;;13.82;12.43;;;;;;;19.55;81.62;95538.78;5051986;28;20224;-65
2023/09/08 00:28:08;;;;;;;14.15;12.70;;;;;;;19.48;81.69;95537.47;5051536;28;20261;-64
2023/09/08 00:30:34;;;;;;;14.88;11.40;;;;;;;19.50;82.15;95537.41;5050051;28;20202;-63
2023/09/08 00:33:01;;;;;;;10.82;9.68;;;;;;;19.47;80.59;95530.66;5051004;28;20235;-64
2023/09/08 00:35:28;;;;;;;9.85;9.05;;;;;;;19.51;77.76;95537.34;5054688;28;20230;-61
2023/09/08 00:37:54;;;;;;;10.32;9.48;;;;;;;19.47;78.36;95535.81;5051803;28;20203;-63
2023/09/08 00:40:21;;;;;;;10.02;8.15;;;;;;;19.44;77.32;95524.88;5053051;28;20238;-64
2023/09/08 00:42:49;;;;;;;10.35;9.45;;;;;;;19.47;77.64;95530.66;5052348;28;20641;-63
2023/09/08 00:45:16;;;;;;;9.30;8.38;;;;;;;19.49;76.83;95528.84;5053210;28;20230;-64
2023/09/08 00:47:42;;;;;;;7.80;7.30;;;;;;;19.46;76.89;95523.84;5050366;28;20261;-64
2023/09/08 00:50:10;;;;;;;8.23;6.75;;;;;;;19.40;75.91;95523.41;5056221;28;20706;-64
2023/09/08 00:52:39;;;;;;;9.93;7.20;;;;;;;19.39;75.98;95527.72;5053068;28;20215;-64
2023/09/08 00:55:06;;;;;;;6.80;6.15;;;;;;;19.43;73.34;95534.34;5054183;28;20203;-65
2023/09/08 00:57:33;;;;;;;6.50;5.90;;;;;;;19.43;72.81;95524.03;5051903;28;20231;-64
2023/09/08 01:00:04;;;;;;;6.10;5.60;;;;;;;19.41;72.14;95515.56;5053463;28;20726;-64
2023/09/08 01:02:31;;;;;;;9.70;6.20;;;;;;;19.45;72.34;95524.78;5053794;28;20211;-64
2023/09/08 01:04:59;;;;;;;6.35;5.95;;;;;;;19.45;73.48;95521.38;5052472;28;20206;-64
2023/09/08 01:07:27;;;;;;;7.10;6.45;;;;;;;19.42;74.29;95524.97;5062163;28;20221;-64
2023/09/08 01:09:54;;;;;;;8.60;7.85;;;;;;;19.38;75.28;95520.91;5051963;28;20199;-64
2023/09/08 01:12:20;;;;;;;7.45;6.85;;;;;;;19.36;76.10;95518.41;5050549;28;20746;-64
2023/09/08 01:14:47;;;;;;;7.72;6.70;;;;;;;19.29;76.66;95516.34;5052490;28;20206;-64
2023/09/08 01:17:15;;;;;;;8.43;6.72;;;;;;;19.21;77.36;95518.53;5051560;28;20745;-64
2023/09/08 01:19:44;;;;;;;6.13;5.68;;;;;;;19.16;76.63;95525.69;5053033;28;20302;-66
2023/09/08 01:22:30;;;;;;;8.82;5.97;;;;;;;19.15;77.73;95514.56;5050989;28;20202;-65
2023/09/08 01:25:09;;;;;;;7.90;6.47;;;;;;;18.99;77.75;95493.22;5050409;28;20207;-65
2023/09/08 01:27:38;;;;;;;7.47;6.63;;;;;;;19.08;78.22;95518.44;5051390;28;20226;-64
2023/09/08 01:30:07;;;;;;;7.05;6.53;;;;;;;19.09;78.04;95516.69;5050848;28;20230;-64
2023/09/08 01:32:35;;;;;;;6.47;5.97;;;;;;;19.02;77.92;95513.66;5052255;28;20223;-64
2023/09/08 01:35:02;;;;;;;7.38;6.70;;;;;;;19.06;77.69;95514.28;5054509;28;20730;-64
2023/09/08 01:37:29;;;;;;;6.32;5.68;;;;;;;19.06;77.58;95506.56;5052850;28;20661;-64
2023/09/08 01:39:55;;;;;;;7.10;6.35;;;;;;;19.05;77.13;95507.50;5051725;28;20202;-64
2023/09/08 01:42:23;;;;;;;8.38;6.85;;;;;;;19.02;77.25;95499.03;5050631;28;20687;-64
2023/09/08 01:44:50;;;;;;;8.57;6.05;;;;;;;18.98;77.47;95497.56;5051226;28;20198;-65
2023/09/08 01:47:17;;;;;;;6.43;5.93;;;;;;;19.02;77.49;95493.88;5052829;28;20278;-64
2023/09/08 01:49:43;;;;;;;7.40;6.40;;;;;;;19.01;77.62;95502.53;5051124;28;20760;-64
2023/09/08 01:52:10;;;;;;;6.60;6.15;;;;;;;19.02;77.50;95509.34;5058782;28;20198;-65
2023/09/08 01:54:37;;;;;;;6.60;5.97;;;;;;;19.02;77.72;95511.09;5052747;28;20230;-64
2023/09/08 01:57:03;;;;;;;7.32;6.22;;;;;;;19.00;77.85;95506.03;5050082;28;20203;-64
2023/09/08 01:59:31;;;;;;;10.00;5.63;;;;;;;18.90;78.46;95506.66;5050376;28;20693;-63
2023/09/08 02:01:58;;;;;;;9.63;6.30;;;;;;;18.81;79.05;95510.59;5051557;28;20237;-64
2023/09/08 02:04:25;;;;;;;6.97;5.30;;;;;;;18.76;78.99;95516.94;5052453;28;20223;-64
2023/09/08 02:06:51;;;;;;;7.05;6.40;;;;;;;18.74;79.87;95511.06;5052142;28;20728;-64
2023/09/08 02:09:18;;;;;;;7.78;6.15;;;;;;;18.68;80.08;95499.34;5053312;28;20840;-63
2023/09/08 02:11:45;;;;;;;7.57;6.78;;;;;;;18.67;80.11;95493.38;5049381;28;20234;-64
2023/09/08 02:14:11;;;;;;;8.45;6.53;;;;;;;18.66;80.48;95501.19;5050088;28;20230;-63
2023/09/08 02:16:39;;;;;;;7.15;6.55;;;;;;;18.64;80.60;95503.03;5052006;28;20223;-63
2023/09/08 02:19:06;;;;;;;6.75;6.18;;;;;;;18.62;80.89;95497.13;5050697;28;20249;-64
2023/09/08 02:21:33;;;;;;;6.65;6.05;;;;;;;18.62;80.78;95497.13;5050138;28;20596;-63
2023/09/08 02:23:59;;;;;;;7.47;6.38;;;;;;;18.65;81.11;95489.22;5052117;28;20238;-64
2023/09/08 02:26:27;;;;;;;8.10;6.97;;;;;;;18.61;81.22;95500.63;5051352;28;20222;-64
2023/09/08 02:28:54;;;;;;;8.35;7.63;;;;;;;18.55;81.64;95495.81;5049437;28;20676;-64
2023/09/08 02:31:20;;;;;;;8.60;7.40;;;;;;;18.55;81.95;95495.81;5049952;28;20245;-65
2023/09/08 02:33:48;;;;;;;9.68;7.90;;;;;;;18.59;81.94;95490.41;5051359;28;20728;-64
2023/09/08 02:36:15;;;;;;;7.47;6.75;;;;;;;18.58;82.12;95487.91;5049276;28;20752;-63
2023/09/08 02:38:42;;;;;;;7.47;6.93;;;;;;;18.60;82.38;95491.25;5051205;28;20256;-64
2023/09/08 02:41:08;;;;;;;7.78;6.75;;;;;;;18.56;82.80;95490.56;5050986;28;20546;-64
2023/09/08 02:43:35;;;;;;;7.93;7.18;;;;;;;18.55;83.12;95490.66;5052917;28;20672;-64
2023/09/08 02:46:02;;;;;;;11.45;7.50;;;;;;;18.49;83.39;95483.28;5052221;28;20227;-64
2023/09/08 02:48:28;;;;;;;8.95;6.55;;;;;;;18.51;83.30;95484.03;5049730;28;20203;-65
2023/09/08 02:50:56;;;;;;;11.73;6.93;;;;;;;18.48;83.95;95481.63;5048428;28;20265;-63
2023/09/08 02:53:28;;;;;;;15.35;7.85;;;;;;;18.47;83.94;95490.28;5049624;28;20250;-64
2023/09/08 02:55:55;;;;;;;8.15;7.50;;;;;;;18.42;84.45;95492.28;5049356;28;20223;-64
2023/09/08 02:58:22;;;;;;;8.27;7.03;;;;;;;18.44;84.75;95477.59;5048697;28;20239;-65
2023/09/08 03:00:49;;;;;;;8.60;7.15;;;;;;;18.43;84.47;95479.31;5050834;28;20211;-64
2023/09/08 03:03:15;;;;;;;7.78;6.80;;;;;;;18.32;85.25;95477.34;5051660;28;20241;-64
2023/09/08 03:05:42;;;;;;;9.00;7.88;;;;;;;18.24;85.96;95473.59;5052110;28;20191;-64
2023/09/08 03:08:10;;;;;;;7.60;7.00;;;;;;;18.24;85.79;95478.72;5050958;28;20645;-64
2023/09/08 03:10:37;;;;;;;7.78;7.15;;;;;;;18.18;86.15;95481.66;5050470;28;20207;-64
2023/09/08 03:13:04;;;;;;;8.73;7.82;;;;;;;18.14;86.37;95480.97;5052757;28;20226;-64
2023/09/08 03:15:31;;;;;;;10.15;8.00;;;;;;;18.11;86.85;95478.59;5049006;28;20236;-64
2023/09/08 03:17:59;;;;;;;9.48;8.57;;;;;;;18.04;87.35;95476.47;5050076;28;20361;-64
2023/09/08 03:20:27;;;;;;;7.88;6.97;;;;;;;17.96;87.76;95479.47;5052117;28;20292;-65
2023/09/08 03:22:53;;;;;;;7.97;7.10;;;;;;;17.95;87.83;95477.78;5046110;28;20579;-64
2023/09/08 03:25:22;;;;;;;11.57;8.30;;;;;;;18.00;87.78;95480.94;5050136;28;20621;-63
2023/09/08 03:27:48;;;;;;;8.95;8.05;;;;;;;18.04;87.63;95482.44;5049498;28;20799;-63
2023/09/08 03:30:15;;;;;;;9.23;8.35;;;;;;;18.06;87.72;95485.75;5047575;28;20268;-65
2023/09/08 03:32:42;;;;;;;8.98;7.95;;;;;;;18.14;87.28;95486.13;5050340;28;20275;-64
2023/09/08 03:35:09;;;;;;;8.75;8.10;;;;;;;18.14;87.66;95483.56;5052466;28;20735;-64
2023/09/08 03:37:36;;;;;;;8.88;8.27;;;;;;;18.05;87.60;95489.25;5050212;28;20235;-65
2023/09/08 03:40:05;;;;;;;8.80;7.57;;;;;;;18.18;87.07;95477.31;5048998;28;20332;-64
2023/09/08 03:42:34;;;;;;;9.43;8.52;;;;;;;18.32;86.06;95482.50;5047843;28;20203;-64
2023/09/08 03:45:01;;;;;;;9.60;8.70;;;;;;;18.27;86.29;95481.13;5049891;28;20299;-64
2023/09/08 03:47:27;;;;;;;14.60;8.27;;;;;;;18.19;86.69;95486.69;5050412;28;20254;-64
2023/09/08 03:49:54;;;;;;;9.57;8.65;;;;;;;18.28;86.65;95486.19;5049933;28;20226;-64
2023/09/08 03:52:21;;;;;;;12.90;8.32;;;;;;;18.31;86.39;95486.00;5051444;28;20310;-64
2023/09/08 03:54:47;;;;;;;9.80;7.97;;;;;;;18.34;85.79;95485.81;5047396;28;20648;-64
2023/09/08 03:57:14;;;;;;;9.50;8.25;;;;;;;18.33;86.02;95484.16;5048286;28;20199;-65
2023/09/08 03:59:42;;;;;;;16.42;8.45;;;;;;;18.17;87.25;95487.69;5048749;28;20291;-67
2023/09/08 04:02:09;;;;;;;10.55;9.18;;;;;;;18.07;87.40;95484.81;5049758;28;20635;-63
2023/09/08 04:04:36;;;;;;;10.77;9.65;;;;;;;17.97;88.59;95488.81;5048301;28;21186;-64
2023/09/08 04:07:03;;;;;;;11.00;9.02;;;;;;;18.10;87.52;95491.53;5049000;28;20765;-64
2023/09/08 04:09:31;;;;;;;15.18;9.10;;;;;;;18.09;87.68;95493.28;5054393;28;20352;-64
2023/09/08 04:11:58;;;;;;;11.20;10.00;;;;;;;18.05;88.20;95481.53;5052822;28;20286;-64
2023/09/08 04:14:27;;;;;;;13.10;8.20;;;;;;;18.09;87.37;95485.56;5052585;28;20712;-64
2023/09/08 04:16:55;;;;;;;10.57;9.27;;;;;;;17.83;88.55;95488.75;5051519;28;20199;-63
2023/09/08 04:19:21;;;;;;;11.32;9.50;;;;;;;17.75;89.36;95490.94;5053546;28;20195;-63
2023/09/08 04:21:48;;;;;;;14.85;9.32;;;;;;;17.78;89.61;95489.03;5052938;28;20296;-64
2023/09/08 04:24:15;;;;;;;14.00;9.93;;;;;;;17.72;89.52;95491.09;5054443;28;20206;-64
2023/09/08 04:26:41;;;;;;;10.90;9.20;;;;;;;17.75;89.61;95496.91;5056001;28;20681;-65
2023/09/08 04:29:08;;;;;;;16.65;10.23;;;;;;;17.73;89.60;95497.91;5055956;28;20708;-64
2023/09/08 04:31:35;;;;;;;17.42;11.40;;;;;;;17.79;88.86;95502.72;5054431;28;20233;-64
2023/09/08 04:34:03;;;;;;;14.15;10.93;;;;;;;17.84;88.55;95503.25;5051496;28;20731;-63
2023/09/08 04:36:30;;;;;;;16.38;10.48;;;;;;;17.94;88.13;95507.00;5055338;28;20222;-66
2023/09/08 04:38:57;;;;;;;10.68;9.40;;;;;;;18.08;86.92;95509.63;5053415;28;20288;-65
2023/09/08 04:41:23;;;;;;;18.52;10.98;;;;;;;18.15;86.67;95505.78;5051164;28;20230;-65
2023/09/08 04:43:50;;;;;;;18.35;11.50;;;;;;;18.19;86.18;95509.84;5053904;28;20253;-65
2023/09/08 04:46:17;;;;;;;25.63;10.63;;;;;;;18.33;85.89;95503.91;5054700;28;20211;-64
2023/09/08 04:48:43;;;;;;;14.88;10.73;;;;;;;18.53;84.57;95505.38;5056757;28;20226;-64
2023/09/08 04:51:11;;;;;;;16.27;10.98;;;;;;;18.71;84.49;95504.34;5053749;28;20268;-65
2023/09/08 04:53:38;;;;;;;18.48;10.57;;;;;;;18.96;83.06;95504.53;5055853;28;20257;-64
2023/09/08 04:56:05;;;;;;;15.50;10.77;;;;;;;19.05;82.45;95504.94;5051437;28;20222;-65
2023/09/08 04:58:31;;;;;;;17.95;10.18;;;;;;;19.13;82.06;95498.38;5052678;28;20913;-64
2023/09/08 05:00:58;;;;;;;17.67;11.05;;;;;;;19.20;81.35;95498.84;5052188;28;20195;-65
2023/09/08 05:03:25;;;;;;;12.68;10.45;;;;;;;19.23;81.70;95496.91;5050961;28;20231;-64
2023/09/08 05:05:52;;;;;;;11.98;9.95;;;;;;;19.26;81.25;95490.75;5052665;28;20721;-65
2023/09/08 05:08:20;;;;;;;17.95;10.38;;;;;;;19.59;80.89;95501.56;5053347;28;20230;-64
2023/09/08 05:10:47;;;;;;;23.85;10.93;;;;;;;19.84;79.61;95494.88;5056033;28;20636;-64
2023/09/08 05:13:14;;;;;;;14.20;11.85;;;;;;;19.87;79.56;95497.28;5053850;28;20206;-66
2023/09/08 05:15:42;;;;;;;20.42;10.27;;;;;;;20.01;79.25;95502.41;5052199;28;20223;-64
2023/09/08 05:18:09;;;;;;;16.90;10.18;;;;;;;20.21;78.77;95504.53;5052043;28;20191;-65
2023/09/08 05:20:36;;;;;;;15.35;10.68;;;;;;;20.43;77.59;95500.59;5050262;28;20265;-65
2023/09/08 05:23:02;;;;;;;17.23;10.75;;;;;;;20.49;77.30;95493.28;5052209;28;20241;-64
2023/09/08 05:25:30;;;;;;;17.63;10.55;;;;;;;20.76;76.36;95503.53;5048573;28;20695;-63
2023/09/08 05:27:57;;;;;;;15.65;10.88;;;;;;;20.71;76.93;95506.41;5048706;28;20782;-64
2023/09/08 05:30:24;;;;;;;11.98;9.85;;;;;;;20.83;76.39;95509.94;5053040;28;20217;-64
2023/09/08 05:32:50;;;;;;;13.65;10.70;;;;;;;20.91;75.72;95507.66;5052156;28;20202;-64
2023/09/08 05:35:17;;;;;;;19.15;10.90;;;;;;;21.06;75.44;95505.78;5050472;28;20242;-64
2023/09/08 05:37:44;;;;;;;11.75;9.95;;;;;;;21.13;75.20;95506.22;5052075;28;20673;-64
2023/09/08 05:40:11;;;;;;;17.20;10.18;;;;;;;21.22;74.85;95510.78;5057736;28;20256;-63
2023/09/08 05:42:39;;;;;;;10.35;8.77;;;;;;;21.35;73.23;95511.59;5051126;28;20296;-64
2023/09/08 05:45:07;;;;;;;16.00;8.80;;;;;;;21.23;72.43;95507.28;5055542;28;20680;-64
2023/09/08 05:47:35;;;;;;;9.80;8.07;;;;;;;21.11;70.61;95508.06;5052190;28;20731;-64
2023/09/08 05:50:01;;;;;;;11.90;7.55;;;;;;;20.93;71.18;95515.31;5053517;28;20211;-66
2023/09/08 05:52:28;;;;;;;7.90;7.10;;;;;;;20.99;71.58;95510.56;5052558;28;20255;-63
2023/09/08 05:54:55;;;;;;;10.27;7.13;;;;;;;21.11;70.98;95518.41;5058032;28;20194;-64
2023/09/08 05:57:22;;;;;;;8.35;7.53;;;;;;;21.26;71.02;95513.06;5055559;28;20194;-64
2023/09/08 05:59:50;;;;;;;8.40;7.30;;;;;;;21.61;69.74;95517.56;5051117;28;20199;-65
2023/09/08 06:02:16;;;;;;;8.63;7.45;;;;;;;22.06;67.77;95518.69;5051723;28;20323;-64
2023/09/08 06:04:44;;;;;;;9.15;7.43;;;;;;;22.62;66.09;95518.91;5053134;28;20230;-64
2023/09/08 06:07:10;;;;;;;9.30;6.60;;;;;;;22.62;64.00;95518.91;5050455;28;20254;-65
2023/09/08 06:09:37;;;;;;;7.72;6.75;;;;;;;22.73;62.88;95514.59;5052477;28;20680;-64
2023/09/08 06:12:04;;;;;;;7.53;6.90;;;;;;;22.77;62.70;95517.75;5051622;28;20199;-65
2023/09/08 06:14:31;;;;;;;7.15;5.30;;;;;;;22.76;62.55;95521.31;5052629;28;20647;-64
2023/09/08 06:16:59;;;;;;;7.93;6.72;;;;;;;22.63;58.23;95517.97;5050553;28;20203;-64
2023/09/08 06:19:26;;;;;;;7.22;6.53;;;;;;;22.63;59.23;95523.16;5053752;28;20261;-64
2023/09/08 06:21:52;;;;;;;6.30;5.45;;;;;;;22.61;58.69;95518.09;5055080;28;20660;-64
2023/09/08 06:24:19;;;;;;;8.52;5.43;;;;;;;22.97;58.00;95521.50;5050638;28;20265;-64
2023/09/08 06:26:46;;;;;;;6.35;5.72;;;;;;;24.18;55.12;95526.78;5049606;28;21001;-65
2023/09/08 06:29:13;;;;;;;7.20;4.60;;;;;;;25.25;51.05;95521.41;5052332;28;20681;-64
2023/09/08 06:31:39;;;;;;;7.18;5.00;;;;;;;26.22;48.70;95522.59;5052950;28;20210;-66
2023/09/08 06:34:07;;;;;;;5.65;5.05;;;;;;;28.15;44.73;95509.09;5053386;28;20255;-64
2023/09/08 06:36:34;;;;;;;7.60;4.50;;;;;;;29.83;39.31;95523.78;5052613;28;20223;-65
2023/09/08 06:39:01;;;;;;;8.55;4.63;;;;;;;30.07;37.77;95526.50;5056584;28;20230;-65
2023/09/08 06:41:28;;;;;;;4.80;4.05;;;;;;;29.71;37.52;95525.84;5055833;28;20234;-66
2023/09/08 06:43:55;;;;;;;11.52;5.20;;;;;;;28.94;39.22;95531.91;5054279;28;20638;-65
2023/09/08 06:46:21;;;;;;;5.78;5.00;;;;;;;29.25;39.08;95534.91;5050475;28;20260;-64
2023/09/08 06:48:48;;;;;;;4.60;4.22;;;;;;;30.20;36.96;95526.03;5054142;28;20312;-63
2023/09/08 06:51:16;;;;;;;3.85;3.40;;;;;;;30.00;35.80;95528.09;5049742;28;20233;-66
2023/09/08 06:53:44;;;;;;;9.95;3.60;;;;;;;28.94;38.37;95527.50;5050816;28;20275;-64
2023/09/08 06:56:10;;;;;;;5.22;4.00;;;;;;;29.06;37.72;95528.88;5053181;28;20199;-66
2023/09/08 06:58:37;;;;;;;3.78;3.47;;;;;;;29.05;38.27;95529.88;5053103;28;20259;-66
2023/09/08 07:01:04;;;;;;;10.43;3.92;;;;;;;29.18;37.64;95528.66;5049951;28;20231;-63
2023/09/08 07:03:36;;;;;;;4.90;4.22;;;;;;;30.43;35.19;95529.72;5049706;28;20673;-65
2023/09/08 07:06:03;;;;;;;4.30;3.95;;;;;;;29.51;36.50;95535.72;5049394;28;20206;-64
2023/09/08 07:08:31;;;;;;;9.93;4.00;;;;;;;28.94;37.65;95532.75;5050022;28;20277;-65
2023/09/08 07:10:58;;;;;;;4.32;4.00;;;;;;;29.33;37.25;95521.88;5054627;28;20275;-64
2023/09/08 07:13:24;;;;;;;4.85;4.32;;;;;;;30.03;36.06;95519.94;5047368;28;20199;-64
2023/09/08 07:15:51;;;;;;;6.05;3.50;;;;;;;29.62;34.48;95525.00;5049287;28;20206;-65
2023/09/08 07:18:18;;;;;;;4.63;3.33;;;;;;;28.27;37.07;95522.78;5049416;28;20210;-65
2023/09/08 07:20:47;;;;;;;9.13;3.95;;;;;;;27.34;38.64;95524.59;5049666;28;20206;-65
2023/09/08 07:23:14;;;;;;;4.60;3.35;;;;;;;27.74;37.62;95533.91;5046267;28;20283;-67
2023/09/08 07:25:46;;;;;;;3.78;3.47;;;;;;;27.16;37.68;95541.13;5048047;28;20319;-64
2023/09/08 07:28:13;;;;;;;6.57;3.65;;;;;;;27.06;38.75;95526.31;5046916;28;20222;-64
2023/09/08 07:30:39;;;;;;;4.25;2.97;;;;;;;27.87;37.39;95520.53;5048846;28;20287;-65
2023/09/08 07:33:06;;;;;;;4.97;3.63;;;;;;;29.10;35.25;95527.63;5047017;28;20199;-66
2023/09/08 07:35:33;;;;;;;3.58;3.30;;;;;;;28.83;34.63;95530.34;5048412;28;20270;-65
2023/09/08 07:38:00;;;;;;;5.70;3.50;;;;;;;28.83;34.67;95527.75;5049637;28;20249;-66
2023/09/08 07:40:26;;;;;;;6.07;3.58;;;;;;;28.41;35.32;95530.97;5051652;28;20625;-66
2023/09/08 07:42:54;;;;;;;6.03;3.10;;;;;;;27.60;36.97;95524.78;5053109;28;20203;-66
2023/09/08 07:45:21;;;;;;;7.00;3.30;;;;;;;27.73;36.95;95529.66;5060438;28;20229;-65
2023/09/08 07:47:48;;;;;;;8.30;3.45;;;;;;;28.58;35.60;95523.25;5049263;28;20223;-66
2023/09/08 07:50:20;;;;;;;4.25;3.95;;;;;;;29.72;33.85;95496.03;5051842;28;20283;-67
2023/09/08 07:52:47;;;;;;;5.95;2.90;;;;;;;30.31;32.04;95515.25;5054350;28;22394;-68
2023/09/08 07:55:13;;;;;;;3.88;3.58;;;;;;;30.02;32.70;95518.28;5052596;28;20226;-66
2023/09/08 07:57:42;;;;;;;3.13;2.38;;;;;;;29.44;33.45;95525.09;5049249;28;20646;-64
2023/09/08 08:00:11;;;;;;;3.10;2.90;;;;;;;28.78;34.10;95524.72;5051201;28;20199;-65
2023/09/08 08:02:38;;;;;;;3.35;3.10;;;;;;;29.17;33.84;95516.53;5047692;28;20589;-65
2023/09/08 08:05:06;;;;;;;3.13;2.83;;;;;;;29.20;33.13;95517.03;5048347;28;20302;-66
2023/09/08 08:07:33;;;;;;;3.38;3.08;;;;;;;30.09;32.20;95520.13;5049793;28;20334;-65
2023/09/08 08:10:00;;;;;;;3.85;3.28;;;;;;;30.64;31.03;95521.41;5047355;28;20199;-66
2023/09/08 08:12:27;;;;;;;4.13;3.47;;;;;;;31.25;30.47;95488.53;5047699;28;20206;-66
2023/09/08 08:14:53;;;;;;;4.22;3.83;;;;;;;32.06;29.34;95502.22;5049069;28;20757;-66
2023/09/08 08:17:21;;;;;;;3.97;2.90;;;;;;;31.31;29.61;95506.25;5051279;28;20241;-65
2023/09/08 08:19:48;;;;;;;6.38;3.00;;;;;;;30.90;30.43;95506.31;5050910;28;20713;-66
2023/09/08 08:22:15;;;;;;;4.00;3.38;;;;;;;31.33;29.82;95515.63;5047608;28;20210;-67
2023/09/08 08:24:42;;;;;;;3.33;2.88;;;;;;;30.34;31.00;95507.06;5058485;28;20291;-66
2023/09/08 08:27:08;;;;;;;4.32;2.65;;;;;;;30.80;31.06;95503.00;5054003;28;20199;-66
2023/09/08 08:29:35;;;;;;;3.50;3.20;;;;;;;31.19;30.25;95492.66;5051906;28;20246;-66
2023/09/08 08:32:02;;;;;;;2.80;2.67;;;;;;;29.23;33.08;95510.66;5054402;28;20252;-66
2023/09/08 08:34:30;;;;;;;4.03;3.40;;;;;;;29.60;33.06;95508.63;5048867;28;20313;-65
2023/09/08 08:36:57;;;;;;;6.13;3.45;;;;;;;31.03;31.41;95503.97;5048294;28;20715;-65
2023/09/08 08:39:23;;;;;;;3.33;3.13;;;;;;;31.33;30.65;95499.84;5051869;28;20223;-66
2023/09/08 08:41:50;;;;;;;4.93;3.53;;;;;;;29.77;33.25;95499.84;5051011;28;20448;-64
2023/09/08 08:44:18;;;;;;;3.53;3.17;;;;;;;28.38;35.73;95493.81;5049828;28;20210;-67
2023/09/08 08:46:47;;;;;;;3.30;3.10;;;;;;;26.99;37.61;95483.47;5053460;28;20208;-67
2023/09/08 08:49:16;;;;;;;3.50;3.20;;;;;;;26.24;39.94;95496.38;5053137;28;20232;-66
2023/09/08 08:51:45;;;;;;;3.83;3.28;;;;;;;25.50;39.98;95498.50;5056829;28;20291;-65
2023/09/08 08:54:14;;;;;;;4.65;4.32;;;;;;;24.87;42.11;95498.59;5048983;28;20276;-66
2023/09/08 08:56:41;;;;;;;4.40;3.90;;;;;;;24.62;42.41;95498.97;5053928;28;20202;-64
2023/09/08 08:59:10;;;;;;;4.20;4.00;;;;;;;24.33;43.83;95504.78;5061691;28;20190;-64
2023/09/08 09:01:37;;;;;;;3.92;3.50;;;;;;;24.27;44.25;95487.09;5050738;28;20227;-66
2023/09/08 09:04:06;;;;;;;3.35;3.08;;;;;;;24.46;44.17;95490.81;5054784;28;20211;-65
2023/09/08 09:06:33;;;;;;;4.30;4.00;;;;;;;25.03;42.23;95482.56;5053906;28;20207;-65
2023/09/08 09:09:02;;;;;;;3.30;3.10;;;;;;;25.22;41.79;95498.28;5054181;28;20218;-66
2023/09/08 09:11:30;;;;;;;6.40;3.72;;;;;;;24.72;43.22;95497.28;5052416;28;21212;-65
2023/09/08 09:13:57;;;;;;;4.22;3.75;;;;;;;24.41;44.45;95480.78;5053134;28;20230;-65
2023/09/08 09:16:24;;;;;;;6.88;3.40;;;;;;;24.32;44.23;95490.13;5053203;28;20260;-65
2023/09/08 09:18:58;;;;;;;4.10;3.70;;;;;;;24.19;44.34;95489.47;5053078;28;20203;-64
2023/09/08 09:21:25;;;;;;;6.03;3.45;;;;;;;24.20;44.39;95496.31;5050012;28;20246;-66
2023/09/08 09:23:52;;;;;;;3.58;3.28;;;;;;;24.14;44.56;95506.34;5052396;28;20214;-64
2023/09/08 09:26:27;;;;;;;6.80;3.20;;;;;;;24.21;44.36;95495.38;5052163;28;20207;-65
2023/09/08 09:28:54;;;;;;;3.63;3.30;;;;;;;24.28;44.18;95487.91;5050986;28;20809;-66
2023/09/08 09:31:25;;;;;;;4.30;3.70;;;;;;;24.29;44.42;95492.97;5050485;28;20299;-65
2023/09/08 09:34:05;;;;;;;4.10;3.80;;;;;;;24.15;44.79;95485.47;5049338;28;20227;-64
2023/09/08 09:36:32;;;;;;;3.95;3.65;;;;;;;23.82;45.24;95498.53;5052321;28;20195;-66
2023/09/08 09:39:00;;;;;;;3.40;3.10;;;;;;;23.49;45.95;95492.44;5049899;28;20760;-66
2023/09/08 09:41:29;;;;;;;3.78;3.20;;;;;;;23.49;46.14;95496.78;5053137;28;20205;-66
2023/09/08 09:43:56;;;;;;;8.43;3.63;;;;;;;23.83;46.24;95497.59;5053429;28;20275;-65
2023/09/08 09:46:23;;;;;;;4.55;3.63;;;;;;;23.82;45.87;95470.81;5051880;28;20772;-66
2023/09/08 09:48:53;;;;;;;6.82;3.88;;;;;;;23.97;45.70;95489.53;5051849;28;20729;-65
2023/09/08 09:51:20;;;;;;;3.45;3.22;;;;;;;24.14;45.63;95489.00;5060717;28;20297;-64
2023/09/08 09:53:48;;;;;;;4.88;4.13;;;;;;;24.31;45.39;95485.06;5054960;28;20818;-64
2023/09/08 09:56:16;;;;;;;3.65;3.33;;;;;;;24.46;44.94;95483.00;5050946;28;20556;-66
2023/09/08 09:58:45;;;;;;;4.57;4.18;;;;;;;24.74;44.64;95469.41;5054590;28;20198;-67
2023/09/08 10:01:12;;;;;;;4.82;3.60;;;;;;;25.03;43.87;95467.78;5053439;28;20190;-65
2023/09/08 10:03:40;;;;;;;4.93;3.38;;;;;;;24.99;43.59;95476.78;5051229;28;20195;-66
2023/09/08 10:06:07;;;;;;;3.35;3.15;;;;;;;24.71;44.33;95475.66;5050063;28;20680;-64
2023/09/08 10:08:36;;;;;;;5.80;3.22;;;;;;;24.76;44.99;95472.66;5051739;28;20262;-65
2023/09/08 10:11:07;;;;;;;3.60;3.15;;;;;;;24.94;44.45;95462.53;5055052;28;20224;-65
2023/09/08 10:13:40;;;;;;;3.97;3.67;;;;;;;25.51;44.01;95463.72;5049886;28;20784;-64
2023/09/08 10:16:09;;;;;;;4.00;3.70;;;;;;;26.07;42.51;95453.59;5054730;28;20785;-64
2023/09/08 10:18:38;;;;;;;3.47;3.28;;;;;;;25.73;42.49;95455.75;5051440;28;20254;-66
2023/09/08 10:21:07;;;;;;;3.38;3.17;;;;;;;25.68;43.66;95455.34;5049471;28;20301;-66
2023/09/08 10:23:38;;;;;;;3.85;3.55;;;;;;;25.46;43.66;95461.56;5049271;28;20676;-64
2023/09/08 10:26:10;;;;;;;6.95;4.07;;;;;;;25.46;44.41;95458.13;5048917;28;20241;-65
2023/09/08 10:28:37;;;;;;;3.22;3.03;;;;;;;25.15;44.81;95450.34;5053530;28;20782;-64
2023/09/08 10:31:05;;;;;;;6.20;3.03;;;;;;;25.30;44.91;95453.41;5052604;28;20234;-65
2023/09/08 10:33:35;;;;;;;7.63;3.80;;;;;;;25.29;44.13;95452.56;5053845;28;20202;-66
2023/09/08 10:36:05;;;;;;;3.22;3.03;;;;;;;25.40;44.64;95449.88;5099146;28;20744;-66
2023/09/08 10:38:33;;;;;;;4.45;3.38;;;;;;;25.46;44.75;95447.72;5094964;28;20254;-66
2023/09/08 10:41:27;;;;;;;8.32;4.13;;;;;;;25.21;44.72;95452.44;5093043;28;20189;-66
2023/09/08 10:43:56;;;;;;;2.97;2.78;;;;;;;24.74;45.42;95456.41;5092650;28;20254;-64
2023/09/08 10:46:24;;;;;;;4.05;3.65;;;;;;;24.46;46.87;95454.44;5092214;28;20259;-66
2023/09/08 10:48:54;;;;;;;4.57;2.97;;;;;;;24.59;46.35;95447.25;5091558;28;20295;-63
2023/09/08 10:51:22;;;;;;;3.85;3.30;;;;;;;24.65;46.66;95451.97;5090374;27;20202;-64
2023/09/08 10:53:49;;;;;;;4.20;3.90;;;;;;;24.80;45.76;95445.47;5091320;28;20313;-65
2023/09/08 10:56:18;;;;;;;6.25;3.58;;;;;;;24.85;45.38;95443.31;5089560;28;20239;-65
2023/09/08 10:58:50;;;;;;;6.93;3.88;;;;;;;24.86;45.56;95444.97;5090874;28;20771;-65
2023/09/08 11:01:18;;;;;;;5.72;3.10;;;;;;;24.76;45.81;95449.28;5088335;28;20208;-64
2023/09/08 11:03:49;;;;;;;3.72;3.40;;;;;;;24.87;45.13;95444.00;5091681;28;20205;-65
2023/09/08 11:06:19;;;;;;;3.20;3.03;;;;;;;25.22;45.06;95435.03;5089897;28;20213;-67
2023/09/08 11:08:46;;;;;;;3.55;3.22;;;;;;;25.72;43.24;95436.72;5092374;28;20223;-65
2023/09/08 11:11:15;;;;;;;11.73;3.70;;;;;;;25.58;43.09;95452.66;5090565;28;20227;-66
2023/09/08 11:13:41;;;;;;;3.80;3.50;;;;;;;25.08;45.09;95436.19;5093455;28;20255;-65
2023/09/08 11:16:08;;;;;;;4.45;3.38;;;;;;;25.05;45.43;95439.88;5091164;28;20285;-66
2023/09/08 11:18:36;;;;;;;3.88;3.55;;;;;;;24.92;46.56;95430.63;5091480;28;20212;-64
2023/09/08 11:21:04;;;;;;;9.52;3.83;;;;;;;24.67;46.04;95429.25;5088173;28;20262;-64
2023/09/08 11:23:32;;;;;;;4.30;3.85;;;;;;;24.71;45.98;95418.50;5087724;28;20752;-64
2023/09/08 11:26:00;;;;;;;3.65;3.15;;;;;;;25.01;45.25;95425.47;5091040;28;20194;-65
2023/09/08 11:28:28;;;;;;;4.38;3.63;;;;;;;25.47;45.05;95423.34;5089873;28;20691;-65
2023/09/08 11:30:56;;;;;;;7.20;3.67;;;;;;;25.75;44.02;95415.59;5088158;28;20221;-64